Time;durP1;ratioP1;P1;durP2;ratioP2;P2;SDS_P1;SDS_P2;PMS_P1;PMS_P2;Temp;Humidity;BMP_temperature;BMP_pressure;BME280_temperature;BME280_humidity;BME280_pressure;Samples;Min_cycle;Max_cycle;Signal;HPM_P1;HPM_P2
2021/07/05 00:02:14;;;;;;;1.37;1.27;;;;;;;17.11;100.00;96022.34;5032718;28;20199;-64
2021/07/05 00:04:40;;;;;;;1.50;1.40;;;;;;;17.23;100.00;96022.78;5038826;28;20457;-61
2021/07/05 00:07:06;;;;;;;1.20;1.20;;;;;;;17.28;100.00;96014.78;5052940;28;20409;-65
2021/07/05 00:09:31;;;;;;;1.40;1.30;;;;;;;17.36;99.79;96016.06;5052844;28;20179;-61
2021/07/05 00:11:57;;;;;;;1.67;1.20;;;;;;;17.43;99.72;96020.00;5052526;28;20175;-65
2021/07/05 00:14:23;;;;;;;2.50;1.40;;;;;;;17.44;99.13;96024.25;5054411;28;20638;-61
2021/07/05 00:16:49;;;;;;;2.33;1.20;;;;;;;17.41;99.87;96032.00;5057048;28;20172;-64
2021/07/05 00:19:14;;;;;;;1.10;1.10;;;;;;;17.56;98.85;96020.47;5051992;28;20418;-62
2021/07/05 00:21:40;;;;;;;1.27;1.20;;;;;;;17.24;100.00;96019.09;5044749;28;20175;-62
2021/07/05 00:24:06;;;;;;;1.10;0.97;;;;;;;17.14;100.00;96013.81;5056533;28;20215;-65
2021/07/05 00:26:32;;;;;;;1.40;1.30;;;;;;;17.19;100.00;96011.13;5056827;28;20163;-64
2021/07/05 00:28:57;;;;;;;2.17;1.53;;;;;;;17.23;100.00;96009.50;5056836;28;20400;-61
2021/07/05 00:31:23;;;;;;;2.87;1.50;;;;;;;17.15;100.00;96017.28;5056481;28;20174;-61
2021/07/05 00:33:48;;;;;;;3.23;1.27;;;;;;;17.01;100.00;96014.41;5056088;28;20190;-61
2021/07/05 00:36:14;;;;;;;4.40;1.50;;;;;;;17.04;100.00;96013.09;5049589;28;20204;-61
2021/07/05 00:38:39;;;;;;;1.40;1.30;;;;;;;17.03;100.00;96012.28;5036579;28;20651;-61
2021/07/05 00:41:05;;;;;;;1.20;1.10;;;;;;;17.21;100.00;96005.56;5037395;28;20184;-64
2021/07/05 00:43:31;;;;;;;1.73;1.30;;;;;;;17.50;99.88;96005.66;5035995;28;20413;-64
2021/07/05 00:45:56;;;;;;;1.87;1.60;;;;;;;17.48;99.16;96009.34;5036297;28;20638;-64
2021/07/05 00:48:22;;;;;;;1.37;1.27;;;;;;;17.63;98.30;96007.69;5036270;28;20255;-61
2021/07/05 00:50:47;;;;;;;1.10;1.10;;;;;;;17.71;97.81;96007.84;5036275;28;20255;-64
2021/07/05 00:53:13;;;;;;;1.50;1.40;;;;;;;17.63;97.77;96002.34;5035619;28;20518;-63
2021/07/05 00:55:39;;;;;;;1.37;1.27;;;;;;;17.68;97.43;96011.09;5036447;28;20702;-64
2021/07/05 00:58:04;;;;;;;1.97;1.40;;;;;;;17.68;97.91;96019.06;5040986;28;20626;-61
2021/07/05 01:00:30;;;;;;;1.83;1.20;;;;;;;17.48;98.44;96019.97;5041777;28;20656;-65
2021/07/05 01:02:56;;;;;;;1.97;1.00;;;;;;;17.54;98.46;96012.78;5055688;28;20174;-65
2021/07/05 01:05:22;;;;;;;0.97;0.90;;;;;;;17.73;97.48;96016.34;5054128;28;20438;-61
2021/07/05 01:07:48;;;;;;;1.73;1.03;;;;;;;17.77;97.01;96017.38;5055758;28;20179;-62
2021/07/05 01:10:16;;;;;;;1.47;1.20;;;;;;;17.68;97.33;96011.09;5055851;28;20928;-65
2021/07/05 01:12:43;;;;;;;5.60;1.20;;;;;;;17.91;95.57;96012.19;5055542;28;20406;-61
2021/07/05 01:15:11;;;;;;;1.23;1.13;;;;;;;17.69;96.54;96009.19;5055687;28;21011;-64
2021/07/05 01:17:37;;;;;;;2.00;1.30;;;;;;;17.51;97.42;95994.75;5055817;28;20406;-64
2021/07/05 01:20:04;;;;;;;1.50;1.40;;;;;;;17.77;95.91;95990.81;5037305;28;20982;-61
2021/07/05 01:22:30;;;;;;;1.40;1.30;;;;;;;17.54;96.64;95990.75;5035209;28;20790;-64
2021/07/05 01:24:55;;;;;;;1.60;0.97;;;;;;;17.54;96.90;95988.84;5034724;28;20419;-64
2021/07/05 01:27:22;;;;;;;1.30;1.20;;;;;;;17.64;96.22;95982.69;5035023;28;20175;-62
2021/07/05 01:29:48;;;;;;;2.43;1.03;;;;;;;17.81;95.30;95986.50;5034243;28;20522;-65
2021/07/05 01:32:13;;;;;;;3.93;1.50;;;;;;;17.63;95.63;95991.72;5035263;28;20418;-61
2021/07/05 01:34:39;;;;;;;1.90;1.30;;;;;;;17.61;95.62;95984.00;5046164;28;20184;-64
2021/07/05 01:37:06;;;;;;;2.20;1.30;;;;;;;17.33;97.45;95982.91;5055240;28;20274;-64
2021/07/05 01:39:32;;;;;;;1.33;1.33;;;;;;;17.35;97.35;95980.75;5055226;28;20167;-61
2021/07/05 01:41:57;;;;;;;1.23;1.13;;;;;;;17.33;96.78;95985.56;5054827;28;20414;-61
2021/07/05 01:44:23;;;;;;;1.67;1.57;;;;;;;17.42;96.64;95991.06;5055223;28;20277;-65
2021/07/05 01:46:48;;;;;;;1.03;1.03;;;;;;;17.50;95.81;95989.72;5055273;28;20175;-64
2021/07/05 01:49:14;;;;;;;1.33;1.23;;;;;;;17.72;94.91;95974.88;5043633;28;20183;-61
2021/07/05 01:51:40;;;;;;;1.60;1.50;;;;;;;17.78;94.23;95975.63;5033662;28;20169;-62
2021/07/05 01:54:06;;;;;;;1.30;1.20;;;;;;;17.95;93.46;95960.06;5034914;28;20605;-62
2021/07/05 01:56:32;;;;;;;1.57;1.47;;;;;;;17.96;92.53;95954.44;5036111;28;20210;-64
2021/07/05 01:58:58;;;;;;;2.10;1.67;;;;;;;18.09;92.42;95953.00;5034976;28;20407;-65
2021/07/05 02:01:23;;;;;;;2.20;1.10;;;;;;;17.85;93.32;95955.63;5048286;28;20524;-64
2021/07/05 02:03:49;;;;;;;1.50;1.33;;;;;;;17.86;93.28;95967.88;5054553;28;20692;-64
2021/07/05 02:06:15;;;;;;;2.90;2.10;;;;;;;17.73;93.71;95973.81;5054625;28;20626;-65
2021/07/05 02:08:41;;;;;;;2.07;1.40;;;;;;;17.65;93.43;95978.94;5054932;28;20215;-64
2021/07/05 02:11:06;;;;;;;1.30;1.20;;;;;;;17.69;93.32;95964.81;5052439;28;20806;-61
2021/07/05 02:13:35;;;;;;;3.73;1.43;;;;;;;17.51;94.25;95965.50;5054197;28;20191;-61
2021/07/05 02:16:01;;;;;;;2.10;1.17;;;;;;;17.64;93.32;95958.75;5054623;28;20199;-62
2021/07/05 02:18:28;;;;;;;1.40;1.30;;;;;;;17.44;94.88;95959.69;5054425;28;20429;-64
2021/07/05 02:21:00;;;;;;;1.37;1.27;;;;;;;17.62;94.05;95959.03;5054470;28;20544;-64
2021/07/05 02:23:25;;;;;;;2.00;1.60;;;;;;;17.36;94.86;95970.91;5054144;28;20418;-61
2021/07/05 02:25:52;;;;;;;1.23;1.20;;;;;;;17.34;94.96;95962.41;5041602;28;20789;-65
2021/07/05 02:28:20;;;;;;;1.43;1.33;;;;;;;17.28;95.69;95963.53;5034448;28;20171;-64
2021/07/05 02:30:49;;;;;;;5.03;1.47;;;;;;;17.21;95.91;95965.72;5034592;28;20442;-61
2021/07/05 02:33:16;;;;;;;2.43;1.50;;;;;;;17.23;96.05;95967.03;5033791;28;20415;-64
2021/07/05 02:35:42;;;;;;;1.57;1.47;;;;;;;17.21;96.16;95958.53;5034218;28;20449;-62
2021/07/05 02:38:10;;;;;;;1.70;1.60;;;;;;;17.26;95.67;95963.03;5034254;28;20407;-64
2021/07/05 02:40:41;;;;;;;1.50;1.40;;;;;;;17.23;95.66;95960.91;5046438;28;20220;-61
2021/07/05 02:43:07;;;;;;;2.23;1.40;;;;;;;17.35;95.30;95962.16;5053598;28;20418;-65
2021/07/05 02:45:34;;;;;;;1.47;1.37;;;;;;;17.48;94.78;95959.97;5053972;28;20906;-64
2021/07/05 02:48:07;;;;;;;1.77;1.30;;;;;;;17.17;95.62;95965.50;5052689;28;20186;-62
2021/07/05 02:50:32;;;;;;;1.50;1.23;;;;;;;17.57;93.67;95963.59;5053909;28;20414;-62
2021/07/05 02:52:59;;;;;;;1.27;1.20;;;;;;;17.69;93.22;95958.69;5053658;28;20552;-64
2021/07/05 02:55:25;;;;;;;1.90;1.50;;;;;;;17.71;92.92;95964.53;5040460;28;20202;-64
2021/07/05 02:57:50;;;;;;;4.80;1.50;;;;;;;17.64;93.36;95969.38;5033893;28;20415;-61
2021/07/05 03:00:22;;;;;;;3.23;1.23;;;;;;;17.73;92.77;95970.38;5037080;28;20214;-61
2021/07/05 03:02:48;;;;;;;2.47;1.70;;;;;;;17.31;95.23;95968.28;5053356;28;20249;-64
2021/07/05 03:05:16;;;;;;;2.20;1.50;;;;;;;17.18;96.45;95963.59;5053748;28;20438;-64
2021/07/05 03:07:42;;;;;;;2.50;1.30;;;;;;;17.45;95.14;95971.91;5053742;28;20413;-61
2021/07/05 03:10:09;;;;;;;1.77;1.60;;;;;;;17.31;95.53;95960.31;5053646;28;20908;-64
2021/07/05 03:12:36;;;;;;;2.40;1.40;;;;;;;17.00;97.57;95969.56;5053263;28;20634;-65
2021/07/05 03:15:05;;;;;;;1.73;1.27;;;;;;;17.26;96.34;95973.66;5051824;28;20465;-64
2021/07/05 03:17:30;;;;;;;2.10;1.47;;;;;;;17.40;95.66;95962.13;5041072;28;20410;-64
2021/07/05 03:19:56;;;;;;;1.50;1.40;;;;;;;17.48;95.09;95960.75;5053643;28;20412;-65
2021/07/05 03:22:21;;;;;;;4.03;1.60;;;;;;;17.48;95.17;95966.06;5053096;28;20600;-65
2021/07/05 03:24:46;;;;;;;1.40;1.30;;;;;;;17.52;94.79;95953.81;5052172;28;20285;-62
2021/07/05 03:27:12;;;;;;;2.60;1.60;;;;;;;17.59;94.17;95948.97;5053308;28;20175;-63
2021/07/05 03:29:38;;;;;;;1.40;1.30;;;;;;;17.77;93.79;95950.13;5053306;28;20172;-61
2021/07/05 03:32:06;;;;;;;1.47;1.37;;;;;;;17.93;92.66;95951.56;5037276;28;20231;-62
2021/07/05 03:34:32;;;;;;;1.43;1.33;;;;;;;17.95;92.65;95960.84;5033496;28;20897;-64
2021/07/05 03:36:58;;;;;;;1.50;1.40;;;;;;;17.81;92.86;95965.22;5033605;28;20924;-62
2021/07/05 03:39:24;;;;;;;3.07;1.27;;;;;;;17.70;93.41;95969.06;5033364;28;20168;-64
2021/07/05 03:41:49;;;;;;;3.33;2.97;;;;;;;17.76;93.54;95959.97;5032915;28;20501;-64
2021/07/05 03:44:14;;;;;;;5.13;1.47;;;;;;;17.68;94.02;95955.28;5033147;28;20270;-62
2021/07/05 03:46:40;;;;;;;2.03;1.63;;;;;;;17.75;93.81;95955.75;5045860;28;20176;-61
2021/07/05 03:49:05;;;;;;;1.40;1.37;;;;;;;17.51;95.11;95954.09;5054498;28;20210;-61
2021/07/05 03:51:32;;;;;;;1.80;1.70;;;;;;;17.56;94.77;95952.19;5056979;28;20262;-65
2021/07/05 03:53:57;;;;;;;4.20;1.80;;;;;;;17.63;94.69;95943.91;5056863;28;20203;-61
2021/07/05 03:56:23;;;;;;;1.60;1.50;;;;;;;17.77;93.83;95944.81;5057361;28;20591;-65
2021/07/05 03:58:49;;;;;;;1.57;1.47;;;;;;;17.77;94.16;95936.84;5057331;28;20167;-64
2021/07/05 04:01:14;;;;;;;1.70;1.60;;;;;;;17.85;93.54;95937.00;5055507;28;20194;-64
2021/07/05 04:03:40;;;;;;;1.53;1.43;;;;;;;18.01;92.85;95945.66;5056134;28;20199;-64
2021/07/05 04:06:05;;;;;;;3.80;1.47;;;;;;;17.79;93.21;95945.34;5056883;28;20168;-61
2021/07/05 04:08:33;;;;;;;1.80;1.70;;;;;;;17.94;92.84;95931.88;5053771;28;20187;-61
2021/07/05 04:10:59;;;;;;;2.30;1.50;;;;;;;18.10;91.42;95942.06;5053487;28;20225;-62
2021/07/05 04:13:26;;;;;;;2.00;1.57;;;;;;;17.91;93.19;95951.84;5056403;28;20936;-64
2021/07/05 04:15:52;;;;;;;1.73;1.63;;;;;;;18.03;91.96;95946.94;5056887;28;20206;-64
2021/07/05 04:18:17;;;;;;;2.70;1.40;;;;;;;17.78;92.53;95957.03;5056918;28;20888;-65
2021/07/05 04:20:43;;;;;;;2.57;1.70;;;;;;;17.83;92.43;95963.09;5056955;28;20173;-61
2021/07/05 04:23:09;;;;;;;1.83;1.50;;;;;;;17.83;92.59;95955.09;5039068;28;20172;-64
2021/07/05 04:25:34;;;;;;;3.70;1.70;;;;;;;17.71;92.85;95961.88;5043975;28;20175;-62
2021/07/05 04:28:00;;;;;;;1.40;1.30;;;;;;;17.75;92.77;95962.91;5055186;28;20167;-64
2021/07/05 04:30:28;;;;;;;1.67;1.57;;;;;;;17.38;95.39;95974.88;5056544;28;20168;-61
2021/07/05 04:32:54;;;;;;;2.20;2.00;;;;;;;17.27;95.88;95969.91;5056214;28;20186;-61
2021/07/05 04:35:20;;;;;;;1.70;1.60;;;;;;;17.40;95.16;95977.25;5056496;28;20800;-61
2021/07/05 04:37:47;;;;;;;4.37;1.97;;;;;;;17.34;95.83;95973.03;5056654;28;20908;-64
2021/07/05 04:40:16;;;;;;;1.70;1.40;;;;;;;17.46;94.97;95971.63;5049988;28;20545;-61
2021/07/05 04:42:43;;;;;;;1.47;1.37;;;;;;;17.39;95.54;95988.97;5036139;28;20438;-62
2021/07/05 04:45:11;;;;;;;1.33;1.23;;;;;;;17.56;94.75;95980.59;5036277;28;20450;-61
2021/07/05 04:47:37;;;;;;;1.70;1.50;;;;;;;17.53;94.87;95986.47;5036604;28;20753;-62
2021/07/05 04:50:04;;;;;;;2.50;1.50;;;;;;;17.40;95.82;95982.56;5035148;28;20413;-64
2021/07/05 04:52:30;;;;;;;2.03;1.63;;;;;;;17.63;94.92;95978.44;5036011;28;20502;-61
2021/07/05 04:54:55;;;;;;;1.60;1.50;;;;;;;17.70;94.43;95963.72;5052203;28;20552;-61
2021/07/05 04:57:21;;;;;;;1.80;1.57;;;;;;;17.90;92.98;95958.22;5056100;28;20176;-64
2021/07/05 04:59:46;;;;;;;1.97;1.50;;;;;;;17.78;94.02;95963.13;5038604;28;20168;-64
2021/07/05 05:02:12;;;;;;;3.43;1.60;;;;;;;17.94;93.38;95955.78;5035767;28;20171;-61
2021/07/05 05:04:37;;;;;;;1.90;1.43;;;;;;;17.90;93.67;95955.56;5036124;28;20542;-61
2021/07/05 05:07:03;;;;;;;1.93;1.37;;;;;;;17.67;94.92;95953.69;5035988;28;20195;-64
2021/07/05 05:09:29;;;;;;;1.50;1.40;;;;;;;17.78;94.36;95944.53;5037225;28;20601;-64
2021/07/05 05:11:54;;;;;;;3.07;1.50;;;;;;;17.82;94.53;95945.56;5035188;28;20493;-61
2021/07/05 05:14:20;;;;;;;1.90;1.80;;;;;;;18.04;92.99;95948.53;5049421;28;20548;-61
2021/07/05 05:16:47;;;;;;;1.83;1.10;;;;;;;18.04;93.00;95958.38;5039193;28;20207;-64
2021/07/05 05:19:12;;;;;;;2.37;1.40;;;;;;;17.88;93.95;95954.28;5035834;28;20410;-61
2021/07/05 05:21:37;;;;;;;2.00;1.50;;;;;;;17.71;95.22;95960.03;5035436;28;20395;-61
2021/07/05 05:24:04;;;;;;;3.60;2.10;;;;;;;17.74;94.70;95962.09;5035768;28;20180;-64
2021/07/05 05:26:30;;;;;;;1.77;1.63;;;;;;;17.82;94.45;95963.38;5035567;28;20164;-64
2021/07/05 05:28:56;;;;;;;4.90;1.90;;;;;;;17.79;94.77;95987.88;5035793;28;20753;-65
2021/07/05 05:31:22;;;;;;;2.97;1.73;;;;;;;17.89;94.06;95985.09;5045683;28;20422;-61
2021/07/05 05:33:48;;;;;;;3.07;1.57;;;;;;;17.76;95.12;95989.22;5033556;28;20434;-64
2021/07/05 05:36:13;;;;;;;2.13;1.37;;;;;;;17.65;95.30;95986.91;5035354;28;20195;-61
2021/07/05 05:38:45;;;;;;;3.73;1.50;;;;;;;17.95;94.30;95978.66;5035292;28;20508;-61
2021/07/05 05:41:10;;;;;;;2.63;1.40;;;;;;;17.84;94.56;95979.84;5035434;28;20203;-61
2021/07/05 05:43:35;;;;;;;2.83;1.70;;;;;;;17.65;95.92;95989.56;5041995;28;20477;-61
2021/07/05 05:46:01;;;;;;;2.03;1.87;;;;;;;17.74;96.13;95993.19;5055432;28;20175;-65
2021/07/05 05:48:28;;;;;;;2.00;1.60;;;;;;;18.02;94.59;95990.56;5055381;28;20167;-64
2021/07/05 05:50:55;;;;;;;4.33;1.67;;;;;;;17.85;95.01;95984.88;5055064;28;20191;-61
2021/07/05 05:53:20;;;;;;;4.00;1.80;;;;;;;17.84;95.42;95977.97;5054441;28;20437;-65
2021/07/05 05:55:47;;;;;;;1.70;1.60;;;;;;;17.53;98.11;95981.16;5054900;28;20442;-65
2021/07/05 05:58:16;;;;;;;3.83;1.60;;;;;;;17.33;100.00;95979.44;5052742;28;20194;-65
2021/07/05 06:00:42;;;;;;;3.47;1.73;;;;;;;17.65;98.66;95982.38;5054989;28;20402;-61
2021/07/05 06:03:08;;;;;;;3.90;2.10;;;;;;;17.44;100.00;95986.25;5054395;28;20398;-64
2021/07/05 06:05:33;;;;;;;2.43;1.70;;;;;;;17.29;100.00;95975.75;5054893;28;20889;-64
2021/07/05 06:07:58;;;;;;;3.27;1.77;;;;;;;17.64;99.81;95983.47;5054491;28;20171;-65
2021/07/05 06:10:25;;;;;;;1.80;1.70;;;;;;;17.40;100.00;95979.91;5054799;28;20580;-64
2021/07/05 06:12:52;;;;;;;2.00;1.90;;;;;;;17.35;100.00;95974.66;5053259;28;20671;-64
2021/07/05 06:15:19;;;;;;;2.13;1.70;;;;;;;17.60;100.00;95978.97;5053118;28;20508;-65
2021/07/05 06:17:45;;;;;;;3.50;2.00;;;;;;;17.55;100.00;95976.38;5054673;28;20402;-61
2021/07/05 06:20:12;;;;;;;2.80;2.17;;;;;;;17.38;100.00;95977.53;5054609;28;20496;-62
2021/07/05 06:22:43;;;;;;;3.50;2.60;;;;;;;17.56;100.00;95973.44;5054268;28;20402;-62
2021/07/05 06:25:10;;;;;;;3.87;2.23;;;;;;;17.63;100.00;95973.13;5035939;28;20473;-61
2021/07/05 06:27:36;;;;;;;2.63;1.90;;;;;;;17.57;100.00;95966.25;5034841;28;20886;-64
2021/07/05 06:30:02;;;;;;;2.23;2.10;;;;;;;17.36;100.00;95965.59;5034680;28;20403;-62
2021/07/05 06:32:27;;;;;;;2.87;1.57;;;;;;;17.38;100.00;95968.78;5033950;28;20408;-64
2021/07/05 06:34:53;;;;;;;2.40;1.60;;;;;;;17.23;100.00;95967.03;5034284;28;20491;-64
2021/07/05 06:37:18;;;;;;;3.47;1.67;;;;;;;16.99;100.00;95968.00;5034244;28;20175;-61
2021/07/05 06:39:44;;;;;;;1.67;1.57;;;;;;;17.25;100.00;95961.44;5049074;28;20279;-65
2021/07/05 06:42:09;;;;;;;3.13;1.50;;;;;;;17.11;100.00;95965.78;5053551;28;20167;-62
2021/07/05 06:44:34;;;;;;;1.70;1.60;;;;;;;17.33;100.00;95974.13;5054085;28;20179;-63
2021/07/05 06:47:00;;;;;;;2.90;1.83;;;;;;;17.53;100.00;95975.84;5054104;28;20170;-61
2021/07/05 06:49:26;;;;;;;1.63;1.50;;;;;;;17.48;100.00;95980.13;5051443;28;20267;-67
2021/07/05 06:51:53;;;;;;;2.10;1.67;;;;;;;17.64;100.00;95969.38;5033691;28;20255;-67
2021/07/05 06:54:18;;;;;;;1.70;1.60;;;;;;;17.45;100.00;95970.03;5035433;28;20208;-66
2021/07/05 06:56:44;;;;;;;2.67;1.53;;;;;;;17.78;100.00;95973.78;5053611;28;20462;-60
2021/07/05 06:59:09;;;;;;;2.30;1.57;;;;;;;17.69;100.00;95979.97;5041869;28;20657;-60
2021/07/05 07:01:35;;;;;;;2.57;1.50;;;;;;;17.68;100.00;95975.72;5033647;28;20169;-62
2021/07/05 07:04:01;;;;;;;2.70;1.77;;;;;;;17.44;100.00;95979.09;5033644;28;20199;-66
2021/07/05 07:06:26;;;;;;;2.33;1.53;;;;;;;17.68;100.00;95976.53;5033867;28;20155;-61
2021/07/05 07:08:52;;;;;;;1.70;1.60;;;;;;;17.54;100.00;95975.56;5035100;28;20756;-61
2021/07/05 07:11:19;;;;;;;1.87;1.70;;;;;;;17.45;100.00;95979.88;5041102;28;20203;-61
2021/07/05 07:13:44;;;;;;;2.00;1.90;;;;;;;17.60;100.00;95981.63;5033382;28;20196;-61
2021/07/05 07:16:10;;;;;;;2.17;1.90;;;;;;;17.77;100.00;95980.19;5033717;28;20449;-60
2021/07/05 07:18:58;;;;;;;2.30;1.50;;;;;;;17.80;100.00;95981.47;5033783;28;20175;-67
2021/07/05 07:21:24;;;;;;;1.87;1.57;;;;;;;17.71;100.00;95980.47;5033623;28;20214;-67
2021/07/05 07:23:50;;;;;;;3.40;2.00;;;;;;;17.62;100.00;95977.66;5033452;28;20430;-61
2021/07/05 07:26:15;;;;;;;1.60;1.50;;;;;;;17.87;100.00;95981.94;5049573;28;20179;-66
2021/07/05 07:28:41;;;;;;;2.07;1.57;;;;;;;17.86;100.00;95980.34;5047658;28;20421;-61
2021/07/05 07:31:06;;;;;;;1.70;1.50;;;;;;;17.80;100.00;95970.81;5034754;28;20741;-62
2021/07/05 07:33:32;;;;;;;1.40;1.33;;;;;;;17.98;100.00;95972.78;5052890;28;20191;-61
2021/07/05 07:35:59;;;;;;;2.30;2.10;;;;;;;17.74;100.00;95969.28;5045387;28;20199;-66
2021/07/05 07:38:25;;;;;;;4.63;1.90;;;;;;;17.63;100.00;95973.13;5033346;28;20626;-61
2021/07/05 07:40:50;;;;;;;2.20;1.63;;;;;;;17.68;100.00;95967.75;5033474;28;20406;-61
2021/07/05 07:43:16;;;;;;;1.50;1.40;;;;;;;17.73;100.00;95970.38;5032892;28;20411;-67
2021/07/05 07:45:41;;;;;;;1.73;1.63;;;;;;;17.69;100.00;95966.69;5031990;28;20387;-67
2021/07/05 07:48:07;;;;;;;3.23;1.30;;;;;;;17.91;100.00;95970.47;5033308;28;20178;-61
2021/07/05 07:50:32;;;;;;;1.57;1.47;;;;;;;17.77;100.00;95974.06;5038756;28;20548;-67
2021/07/05 07:52:59;;;;;;;2.70;1.70;;;;;;;17.81;100.00;95967.88;5053030;28;20229;-67
2021/07/05 07:55:25;;;;;;;1.67;1.57;;;;;;;17.71;100.00;95960.03;5053138;28;20203;-60
2021/07/05 07:57:50;;;;;;;1.63;1.33;;;;;;;17.81;100.00;95965.22;5051777;28;20413;-61
2021/07/05 08:00:16;;;;;;;1.20;1.20;;;;;;;17.75;100.00;95970.88;5033321;28;20247;-60
2021/07/05 08:02:42;;;;;;;3.77;2.23;;;;;;;17.80;100.00;95979.59;5032960;28;20247;-61
2021/07/05 08:05:08;;;;;;;1.77;1.40;;;;;;;17.76;100.00;95973.25;5034441;28;20207;-60
2021/07/05 08:07:37;;;;;;;4.20;1.70;;;;;;;17.92;100.00;95964.06;5043654;28;20425;-65
2021/07/05 08:10:04;;;;;;;2.10;2.00;;;;;;;17.76;100.00;95978.56;5048117;28;20437;-64
2021/07/05 08:12:29;;;;;;;1.50;1.40;;;;;;;17.97;100.00;95979.94;5049204;28;20418;-61
2021/07/05 08:14:56;;;;;;;1.90;1.80;;;;;;;17.67;100.00;95979.44;5049285;28;20429;-64
2021/07/05 08:17:21;;;;;;;1.70;1.53;;;;;;;17.71;100.00;95986.59;5049562;28;20211;-63
2021/07/05 08:19:47;;;;;;;2.00;1.80;;;;;;;17.71;100.00;95988.47;5048999;28;20453;-63
2021/07/05 08:22:12;;;;;;;1.50;1.33;;;;;;;17.62;100.00;95976.84;5032697;28;20176;-64
2021/07/05 08:24:38;;;;;;;1.80;1.50;;;;;;;17.78;100.00;95975.63;5034820;28;20207;-64
2021/07/05 08:27:03;;;;;;;1.73;1.60;;;;;;;17.95;100.00;95987.44;5029437;28;20585;-65
2021/07/05 08:29:29;;;;;;;2.27;1.43;;;;;;;18.16;100.00;95980.03;5037986;28;20184;-65
2021/07/05 08:31:54;;;;;;;2.50;1.90;;;;;;;18.25;100.00;95981.81;5030798;28;20177;-65
2021/07/05 08:34:19;;;;;;;2.83;1.80;;;;;;;18.04;100.00;95983.09;5029386;28;20200;-65
2021/07/05 08:36:45;;;;;;;4.00;1.87;;;;;;;17.86;100.00;95985.66;5033217;28;20318;-64
2021/07/05 08:39:13;;;;;;;2.67;1.60;;;;;;;18.12;100.00;95984.31;5048979;28;20205;-61
2021/07/05 08:41:38;;;;;;;3.70;1.83;;;;;;;18.03;100.00;95986.00;5051430;28;20809;-62
2021/07/05 08:44:04;;;;;;;2.00;1.80;;;;;;;18.19;100.00;95985.59;5052283;28;20426;-61
2021/07/05 08:46:32;;;;;;;4.33;2.00;;;;;;;18.03;100.00;95978.03;5052887;28;20636;-65
2021/07/05 08:48:58;;;;;;;2.50;1.40;;;;;;;18.17;100.00;95976.31;5052847;28;20175;-64
2021/07/05 08:51:24;;;;;;;1.60;1.50;;;;;;;18.13;100.00;95968.13;5040122;28;21018;-62
2021/07/05 08:53:52;;;;;;;1.80;1.70;;;;;;;18.44;100.00;95966.69;5032596;28;20825;-65
2021/07/05 08:56:18;;;;;;;1.87;1.77;;;;;;;18.62;100.00;95967.81;5032308;28;20956;-62
2021/07/05 08:58:45;;;;;;;2.17;2.03;;;;;;;18.77;100.00;95964.19;5041220;28;20461;-65
2021/07/05 09:01:11;;;;;;;2.27;1.73;;;;;;;18.81;100.00;95967.81;5052655;28;20425;-65
2021/07/05 09:03:37;;;;;;;1.90;1.80;;;;;;;18.93;99.99;95969.00;5052139;28;20422;-61
2021/07/05 09:06:06;;;;;;;1.87;1.60;;;;;;;18.69;99.60;95970.13;5051450;28;20180;-64
2021/07/05 09:08:35;;;;;;;2.50;1.60;;;;;;;18.63;99.89;95961.41;5031100;28;20923;-61
2021/07/05 09:11:01;;;;;;;2.70;1.80;;;;;;;18.87;100.00;95966.69;5034712;28;20427;-64
2021/07/05 09:13:27;;;;;;;2.00;1.70;;;;;;;18.57;100.00;95969.75;5043585;28;20453;-61
2021/07/05 09:15:55;;;;;;;2.50;1.90;;;;;;;18.77;100.00;95974.81;5044255;28;20211;-63
2021/07/05 09:18:32;;;;;;;2.20;1.80;;;;;;;18.66;100.00;95971.47;5036542;28;20431;-66
2021/07/05 09:21:19;;;;;;;1.93;1.57;;;;;;;19.06;100.00;95972.84;5030935;28;20429;-65
2021/07/05 09:24:02;;;;;;;1.83;1.50;;;;;;;18.70;100.00;95969.84;5031780;28;20422;-62
2021/07/05 09:26:43;;;;;;;1.73;1.50;;;;;;;18.91;99.57;95973.84;5035060;28;20434;-63
2021/07/05 09:29:14;;;;;;;1.40;1.40;;;;;;;18.90;99.58;95977.56;5052085;28;20431;-62
2021/07/05 09:31:41;;;;;;;2.40;1.30;;;;;;;18.90;97.83;95974.09;5051182;28;20445;-65
2021/07/05 09:34:27;;;;;;;1.10;1.10;;;;;;;18.85;97.46;95987.50;5051887;28;20433;-65
2021/07/05 09:37:08;;;;;;;1.33;1.27;;;;;;;18.88;97.43;95987.69;5051936;28;20552;-61
2021/07/05 09:39:33;;;;;;;1.77;1.67;;;;;;;18.73;99.87;95992.44;5052091;28;20412;-63
2021/07/05 09:41:59;;;;;;;1.37;1.27;;;;;;;18.51;100.00;95985.00;5040675;28;20795;-64
2021/07/05 09:44:27;;;;;;;1.50;1.40;;;;;;;18.51;100.00;95992.97;5040568;28;20290;-60
2021/07/05 09:46:58;;;;;;;1.97;1.17;;;;;;;18.61;100.00;95979.53;5042547;28;20203;-61
2021/07/05 09:49:28;;;;;;;1.20;1.10;;;;;;;18.10;100.00;95983.84;5030582;28;20480;-60
2021/07/05 09:52:23;;;;;;;1.40;1.30;;;;;;;18.48;100.00;95972.25;5031416;28;20415;-64
2021/07/05 09:54:58;;;;;;;1.70;1.30;;;;;;;18.09;100.00;95969.75;5030963;28;20442;-64
2021/07/05 09:57:48;;;;;;;1.37;1.00;;;;;;;18.56;100.00;95962.84;5031916;28;20468;-60
2021/07/05 10:00:22;;;;;;;1.00;1.00;;;;;;;18.53;100.00;95966.88;5031698;28;20403;-64
2021/07/05 10:03:07;;;;;;;1.17;1.17;;;;;;;18.35;100.00;95963.03;5031605;28;20508;-62
2021/07/05 10:05:35;;;;;;;1.37;1.27;;;;;;;18.30;100.00;95964.97;5031521;28;20418;-61
2021/07/05 10:08:07;;;;;;;0.90;0.90;;;;;;;18.48;100.00;95962.41;5040313;28;20422;-64
2021/07/05 10:10:34;;;;;;;0.80;0.80;;;;;;;18.60;100.00;95969.97;5031665;28;20469;-63
2021/07/05 10:13:08;;;;;;;0.97;0.97;;;;;;;18.90;100.00;95963.44;5030976;28;20458;-62
2021/07/05 10:15:35;;;;;;;1.43;1.07;;;;;;;18.94;100.00;95964.47;5031764;28;20461;-63
2021/07/05 10:18:01;;;;;;;3.30;1.13;;;;;;;18.72;100.00;95965.03;5030745;28;20849;-64
2021/07/05 10:20:30;;;;;;;1.30;1.20;;;;;;;18.68;100.00;95966.66;5035627;28;20505;-64
2021/07/05 10:22:58;;;;;;;1.17;1.10;;;;;;;18.79;100.00;95968.13;5050173;28;20600;-63
2021/07/05 10:25:25;;;;;;;0.93;0.90;;;;;;;18.94;100.00;95956.47;5031432;28;20457;-64
2021/07/05 10:27:51;;;;;;;1.00;1.00;;;;;;;18.69;100.00;95951.50;5031115;28;20498;-63
2021/07/05 10:30:18;;;;;;;3.00;1.20;;;;;;;18.65;100.00;95951.28;5030363;28;20499;-64
2021/07/05 10:32:46;;;;;;;1.00;1.00;;;;;;;18.67;100.00;95958.97;5030571;28;20538;-61
2021/07/05 10:35:14;;;;;;;1.77;1.13;;;;;;;18.72;100.00;95954.38;5030705;28;20969;-62
2021/07/05 10:37:48;;;;;;;1.27;1.27;;;;;;;18.99;100.00;95949.19;5037007;28;20426;-60
2021/07/05 10:40:15;;;;;;;1.40;1.00;;;;;;;19.13;99.74;95949.28;5050827;28;20417;-58
2021/07/05 10:42:43;;;;;;;1.93;1.10;;;;;;;19.11;100.00;95944.22;5049882;28;20467;-65
2021/07/05 10:45:17;;;;;;;4.23;1.20;;;;;;;19.04;98.54;95940.38;5050592;28;20422;-63
2021/07/05 10:47:48;;;;;;;1.63;1.23;;;;;;;19.22;99.29;95932.34;5050834;28;20418;-60
2021/07/05 10:50:41;;;;;;;1.23;1.13;;;;;;;19.11;100.00;95925.56;5050716;28;20413;-65
2021/07/05 10:53:08;;;;;;;1.50;1.30;;;;;;;19.17;99.76;95931.63;5037736;28;20407;-60
2021/07/05 10:55:39;;;;;;;1.20;1.20;;;;;;;19.26;98.81;95924.56;5029908;28;20560;-63
2021/07/05 10:58:20;;;;;;;1.20;1.10;;;;;;;19.14;98.39;95933.00;5033237;28;20445;-63
2021/07/05 11:00:51;;;;;;;1.30;1.20;;;;;;;19.34;98.80;95934.59;5050293;28;20409;-63
2021/07/05 11:03:39;;;;;;;2.10;1.03;;;;;;;19.39;97.53;95929.16;5049975;28;20824;-60
2021/07/05 11:06:25;;;;;;;1.37;1.20;;;;;;;19.18;97.29;95928.69;5050010;28;20397;-60
2021/07/05 11:08:52;;;;;;;1.27;1.13;;;;;;;19.31;96.30;95924.53;5036906;28;20491;-60
2021/07/05 11:11:25;;;;;;;1.93;1.27;;;;;;;19.37;97.39;95936.66;5050178;28;20411;-60
2021/07/05 11:14:22;;;;;;;1.10;1.10;;;;;;;19.59;95.05;95920.03;5038306;28;20426;-59
2021/07/05 11:17:09;;;;;;;1.30;1.20;;;;;;;19.46;95.95;95926.91;5030206;28;20459;-60
2021/07/05 11:19:39;;;;;;;1.17;1.10;;;;;;;20.10;95.02;95934.84;5029790;28;20415;-58
2021/07/05 11:22:06;;;;;;;1.43;1.00;;;;;;;20.07;95.23;95929.31;5037292;28;20422;-60
2021/07/05 11:24:36;;;;;;;1.20;1.03;;;;;;;20.26;94.19;95928.16;5049897;28;20449;-58
2021/07/05 11:27:39;;;;;;;2.23;1.20;;;;;;;20.33;93.02;95933.88;5031130;28;20481;-61
2021/07/05 11:30:26;;;;;;;1.27;1.20;;;;;;;20.19;92.52;95940.31;5020028;28;20438;-59
2021/07/05 11:35:44;;;;;;;1.50;1.40;;;;;;;20.29;91.26;95932.13;5013315;28;20487;-60